sensor_id;sensor_type;location;lat;lon;timestamp;P1;durP1;ratioP1;P2;durP2;ratioP2
34035;SDS011;63481;52.588;22.472;2023-02-08T00:00:09;26.00;;;10.50;;
34035;SDS011;63481;52.588;22.472;2023-02-08T00:01:23;16.70;;;6.90;;
34035;SDS011;63481;52.588;22.472;2023-02-08T00:02:17;17.40;;;7.60;;
34035;SDS011;63481;52.588;22.472;2023-02-08T00:03:09;17.80;;;7.50;;
34035;SDS011;63481;52.588;22.472;2023-02-08T00:04:02;20.70;;;7.90;;
34035;SDS011;63481;52.588;22.472;2023-02-08T00:04:55;19.90;;;7.50;;
34035;SDS011;63481;52.588;22.472;2023-02-08T00:05:47;17.40;;;7.30;;
34035;SDS011;63481;52.588;22.472;2023-02-08T00:06:40;31.00;;;11.10;;
34035;SDS011;63481;52.588;22.472;2023-02-08T00:07:36;86.80;;;28.80;;
34035;SDS011;63481;52.588;22.472;2023-02-08T00:08:29;154.60;;;45.80;;
34035;SDS011;63481;52.588;22.472;2023-02-08T00:09:22;126.60;;;39.00;;
34035;SDS011;63481;52.588;22.472;2023-02-08T00:10:14;111.50;;;37.00;;
34035;SDS011;63481;52.588;22.472;2023-02-08T00:11:07;132.60;;;44.10;;
34035;SDS011;63481;52.588;22.472;2023-02-08T00:12:03;126.50;;;40.40;;
34035;SDS011;63481;52.588;22.472;2023-02-08T00:12:56;114.00;;;36.40;;
34035;SDS011;63481;52.588;22.472;2023-02-08T00:13:49;109.10;;;36.10;;
34035;SDS011;63481;52.588;22.472;2023-02-08T00:14:42;99.70;;;34.40;;
34035;SDS011;63481;52.588;22.472;2023-02-08T00:15:39;83.80;;;27.70;;
34035;SDS011;63481;52.588;22.472;2023-02-08T00:16:32;59.30;;;20.80;;
34035;SDS011;63481;52.588;22.472;2023-02-08T00:17:25;45.20;;;15.50;;
34035;SDS011;63481;52.588;22.472;2023-02-08T00:18:18;42.90;;;15.90;;
34035;SDS011;63481;52.588;22.472;2023-02-08T00:19:11;20.00;;;7.90;;
34035;SDS011;63481;52.588;22.472;2023-02-08T00:20:04;19.70;;;8.40;;
34035;SDS011;63481;52.588;22.472;2023-02-08T00:20:58;16.20;;;7.10;;
34035;SDS011;63481;52.588;22.472;2023-02-08T00:21:50;19.70;;;8.00;;
34035;SDS011;63481;52.588;22.472;2023-02-08T00:22:43;16.30;;;7.00;;
34035;SDS011;63481;52.588;22.472;2023-02-08T00:23:36;16.00;;;7.00;;
34035;SDS011;63481;52.588;22.472;2023-02-08T00:24:29;19.00;;;7.50;;
34035;SDS011;63481;52.588;22.472;2023-02-08T00:25:21;21.50;;;7.90;;
34035;SDS011;63481;52.588;22.472;2023-02-08T00:26:14;15.10;;;6.90;;
34035;SDS011;63481;52.588;22.472;2023-02-08T00:27:07;16.00;;;7.00;;
34035;SDS011;63481;52.588;22.472;2023-02-08T00:28:00;16.50;;;6.90;;
34035;SDS011;63481;52.588;22.472;2023-02-08T00:28:53;17.30;;;5.90;;
34035;SDS011;63481;52.588;22.472;2023-02-08T00:29:45;14.60;;;6.60;;
34035;SDS011;63481;52.588;22.472;2023-02-08T00:30:38;12.40;;;5.50;;
34035;SDS011;63481;52.588;22.472;2023-02-08T00:31:33;12.10;;;5.50;;
34035;SDS011;63481;52.588;22.472;2023-02-08T00:32:26;13.50;;;6.10;;
34035;SDS011;63481;52.588;22.472;2023-02-08T00:33:19;14.50;;;6.70;;
34035;SDS011;63481;52.588;22.472;2023-02-08T00:34:11;13.90;;;6.10;;
34035;SDS011;63481;52.588;22.472;2023-02-08T00:35:04;14.40;;;6.30;;
34035;SDS011;63481;52.588;22.472;2023-02-08T00:35:58;15.30;;;6.60;;
34035;SDS011;63481;52.588;22.472;2023-02-08T00:36:55;16.00;;;6.10;;
34035;SDS011;63481;52.588;22.472;2023-02-08T00:37:48;14.30;;;6.30;;
34035;SDS011;63481;52.588;22.472;2023-02-08T00:38:43;15.20;;;6.50;;
34035;SDS011;63481;52.588;22.472;2023-02-08T00:39:36;12.60;;;6.00;;
34035;SDS011;63481;52.588;22.472;2023-02-08T00:40:28;13.90;;;6.40;;
34035;SDS011;63481;52.588;22.472;2023-02-08T00:41:22;16.00;;;6.00;;
34035;SDS011;63481;52.588;22.472;2023-02-08T00:42:15;14.10;;;5.90;;
34035;SDS011;63481;52.588;22.472;2023-02-08T00:43:08;14.20;;;6.90;;
34035;SDS011;63481;52.588;22.472;2023-02-08T00:44:01;14.20;;;5.90;;
34035;SDS011;63481;52.588;22.472;2023-02-08T00:44:54;13.00;;;6.20;;
34035;SDS011;63481;52.588;22.472;2023-02-08T00:45:52;16.70;;;6.30;;
34035;SDS011;63481;52.588;22.472;2023-02-08T00:46:50;11.20;;;5.80;;
34035;SDS011;63481;52.588;22.472;2023-02-08T00:47:43;14.50;;;6.40;;
34035;SDS011;63481;52.588;22.472;2023-02-08T00:48:35;15.30;;;6.30;;
34035;SDS011;63481;52.588;22.472;2023-02-08T00:49:29;13.90;;;6.20;;
34035;SDS011;63481;52.588;22.472;2023-02-08T00:50:22;14.00;;;5.80;;
34035;SDS011;63481;52.588;22.472;2023-02-08T00:51:15;14.20;;;6.20;;
34035;SDS011;63481;52.588;22.472;2023-02-08T00:52:07;17.10;;;6.30;;
34035;SDS011;63481;52.588;22.472;2023-02-08T00:53:01;12.50;;;5.90;;
34035;SDS011;63481;52.588;22.472;2023-02-08T00:53:54;13.50;;;5.80;;
34035;SDS011;63481;52.588;22.472;2023-02-08T00:54:47;20.30;;;6.80;;
34035;SDS011;63481;52.588;22.472;2023-02-08T00:55:41;12.70;;;6.20;;
34035;SDS011;63481;52.588;22.472;2023-02-08T00:56:34;14.80;;;6.50;;
34035;SDS011;63481;52.588;22.472;2023-02-08T00:57:28;19.50;;;7.20;;
34035;SDS011;63481;52.588;22.472;2023-02-08T00:58:21;16.10;;;7.00;;
34035;SDS011;63481;52.588;22.472;2023-02-08T00:59:15;17.00;;;6.30;;
34035;SDS011;63481;52.588;22.472;2023-02-08T01:00:10;12.90;;;5.90;;
34035;SDS011;63481;52.588;22.472;2023-02-08T01:01:05;15.40;;;7.00;;
34035;SDS011;63481;52.588;22.472;2023-02-08T01:01:59;14.70;;;6.40;;
34035;SDS011;63481;52.588;22.472;2023-02-08T01:02:52;16.00;;;6.60;;
34035;SDS011;63481;52.588;22.472;2023-02-08T01:03:45;18.90;;;8.00;;
34035;SDS011;63481;52.588;22.472;2023-02-08T01:04:39;17.20;;;7.60;;
34035;SDS011;63481;52.588;22.472;2023-02-08T01:05:32;18.20;;;7.90;;
34035;SDS011;63481;52.588;22.472;2023-02-08T01:06:25;15.30;;;6.80;;
34035;SDS011;63481;52.588;22.472;2023-02-08T01:07:18;13.90;;;7.20;;
34035;SDS011;63481;52.588;22.472;2023-02-08T01:08:10;14.30;;;6.30;;
34035;SDS011;63481;52.588;22.472;2023-02-08T01:09:04;15.00;;;6.00;;
34035;SDS011;63481;52.588;22.472;2023-02-08T01:09:57;16.00;;;6.40;;
34035;SDS011;63481;52.588;22.472;2023-02-08T01:10:52;15.80;;;7.20;;
34035;SDS011;63481;52.588;22.472;2023-02-08T01:11:45;15.70;;;6.50;;
34035;SDS011;63481;52.588;22.472;2023-02-08T01:12:39;15.00;;;6.90;;
34035;SDS011;63481;52.588;22.472;2023-02-08T01:13:33;14.00;;;6.90;;
34035;SDS011;63481;52.588;22.472;2023-02-08T01:14:26;16.30;;;7.10;;
34035;SDS011;63481;52.588;22.472;2023-02-08T01:15:20;13.90;;;6.00;;
34035;SDS011;63481;52.588;22.472;2023-02-08T01:16:15;16.40;;;7.00;;
34035;SDS011;63481;52.588;22.472;2023-02-08T01:17:10;15.70;;;6.00;;
34035;SDS011;63481;52.588;22.472;2023-02-08T01:18:04;15.60;;;6.70;;
34035;SDS011;63481;52.588;22.472;2023-02-08T01:18:58;15.00;;;5.90;;
34035;SDS011;63481;52.588;22.472;2023-02-08T01:19:52;16.30;;;7.90;;
34035;SDS011;63481;52.588;22.472;2023-02-08T01:20:44;12.80;;;5.90;;
34035;SDS011;63481;52.588;22.472;2023-02-08T01:21:38;11.80;;;6.00;;
34035;SDS011;63481;52.588;22.472;2023-02-08T01:22:32;13.10;;;6.10;;
34035;SDS011;63481;52.588;22.472;2023-02-08T01:23:26;15.40;;;7.00;;
34035;SDS011;63481;52.588;22.472;2023-02-08T01:24:18;13.50;;;6.20;;
34035;SDS011;63481;52.588;22.472;2023-02-08T01:25:11;15.50;;;6.80;;
34035;SDS011;63481;52.588;22.472;2023-02-08T01:26:04;12.80;;;6.10;;
34035;SDS011;63481;52.588;22.472;2023-02-08T01:26:59;15.60;;;6.50;;
34035;SDS011;63481;52.588;22.472;2023-02-08T01:27:52;15.20;;;6.30;;
34035;SDS011;63481;52.588;22.472;2023-02-08T01:28:48;16.50;;;6.70;;
34035;SDS011;63481;52.588;22.472;2023-02-08T01:29:41;19.10;;;8.00;;
34035;SDS011;63481;52.588;22.472;2023-02-08T01:30:34;14.50;;;6.60;;
34035;SDS011;63481;52.588;22.472;2023-02-08T01:31:31;13.80;;;6.60;;
34035;SDS011;63481;52.588;22.472;2023-02-08T01:32:25;16.70;;;7.20;;
34035;SDS011;63481;52.588;22.472;2023-02-08T01:33:19;15.00;;;6.80;;
34035;SDS011;63481;52.588;22.472;2023-02-08T01:34:12;13.10;;;6.30;;
34035;SDS011;63481;52.588;22.472;2023-02-08T01:35:05;14.70;;;6.80;;
34035;SDS011;63481;52.588;22.472;2023-02-08T01:35:58;14.70;;;6.70;;
34035;SDS011;63481;52.588;22.472;2023-02-08T01:36:50;16.40;;;6.80;;
34035;SDS011;63481;52.588;22.472;2023-02-08T01:37:43;13.60;;;6.70;;
34035;SDS011;63481;52.588;22.472;2023-02-08T01:38:36;13.90;;;6.60;;
34035;SDS011;63481;52.588;22.472;2023-02-08T01:39:29;14.70;;;7.20;;
34035;SDS011;63481;52.588;22.472;2023-02-08T01:40:22;14.10;;;6.50;;
34035;SDS011;63481;52.588;22.472;2023-02-08T01:41:16;15.90;;;7.20;;
34035;SDS011;63481;52.588;22.472;2023-02-08T01:42:17;14.50;;;7.00;;
34035;SDS011;63481;52.588;22.472;2023-02-08T01:43:21;18.80;;;6.70;;
34035;SDS011;63481;52.588;22.472;2023-02-08T01:46:07;16.40;;;6.90;;
34035;SDS011;63481;52.588;22.472;2023-02-08T01:47:01;15.60;;;7.00;;
34035;SDS011;63481;52.588;22.472;2023-02-08T01:48:14;15.90;;;7.20;;
34035;SDS011;63481;52.588;22.472;2023-02-08T01:50:19;17.60;;;7.20;;
34035;SDS011;63481;52.588;22.472;2023-02-08T01:51:22;15.30;;;7.10;;
34035;SDS011;63481;52.588;22.472;2023-02-08T01:52:22;13.90;;;7.20;;
34035;SDS011;63481;52.588;22.472;2023-02-08T01:53:18;13.70;;;6.90;;
34035;SDS011;63481;52.588;22.472;2023-02-08T01:54:11;14.00;;;6.40;;
34035;SDS011;63481;52.588;22.472;2023-02-08T01:55:08;15.40;;;7.20;;
34035;SDS011;63481;52.588;22.472;2023-02-08T01:56:09;16.80;;;8.00;;
34035;SDS011;63481;52.588;22.472;2023-02-08T01:57:06;13.60;;;6.60;;
34035;SDS011;63481;52.588;22.472;2023-02-08T01:58:00;14.60;;;6.90;;
34035;SDS011;63481;52.588;22.472;2023-02-08T01:58:57;16.30;;;7.40;;
34035;SDS011;63481;52.588;22.472;2023-02-08T01:59:55;17.00;;;7.90;;
34035;SDS011;63481;52.588;22.472;2023-02-08T02:00:53;14.80;;;7.40;;
34035;SDS011;63481;52.588;22.472;2023-02-08T02:01:47;15.70;;;7.40;;
34035;SDS011;63481;52.588;22.472;2023-02-08T02:02:43;18.00;;;8.00;;
34035;SDS011;63481;52.588;22.472;2023-02-08T02:03:39;15.50;;;8.20;;
34035;SDS011;63481;52.588;22.472;2023-02-08T02:04:31;17.60;;;7.70;;
34035;SDS011;63481;52.588;22.472;2023-02-08T02:05:31;14.60;;;7.10;;
34035;SDS011;63481;52.588;22.472;2023-02-08T02:06:30;14.20;;;7.10;;
34035;SDS011;63481;52.588;22.472;2023-02-08T02:07:27;16.80;;;7.50;;
34035;SDS011;63481;52.588;22.472;2023-02-08T02:08:24;16.80;;;7.60;;
34035;SDS011;63481;52.588;22.472;2023-02-08T02:10:39;17.30;;;7.80;;
34035;SDS011;63481;52.588;22.472;2023-02-08T02:11:34;17.10;;;7.90;;
34035;SDS011;63481;52.588;22.472;2023-02-08T02:12:28;17.30;;;8.50;;
34035;SDS011;63481;52.588;22.472;2023-02-08T02:13:24;15.00;;;7.20;;
34035;SDS011;63481;52.588;22.472;2023-02-08T02:14:19;19.80;;;7.20;;
34035;SDS011;63481;52.588;22.472;2023-02-08T02:15:13;18.70;;;7.90;;
34035;SDS011;63481;52.588;22.472;2023-02-08T02:16:06;18.60;;;9.10;;
34035;SDS011;63481;52.588;22.472;2023-02-08T02:17:00;17.70;;;7.70;;
34035;SDS011;63481;52.588;22.472;2023-02-08T02:17:53;16.30;;;7.70;;
34035;SDS011;63481;52.588;22.472;2023-02-08T02:18:47;17.10;;;8.30;;
34035;SDS011;63481;52.588;22.472;2023-02-08T02:20:38;17.20;;;7.10;;
34035;SDS011;63481;52.588;22.472;2023-02-08T02:26:35;14.80;;;6.20;;
34035;SDS011;63481;52.588;22.472;2023-02-08T02:31:58;19.40;;;6.30;;
34035;SDS011;63481;52.588;22.472;2023-02-08T02:36:52;13.10;;;5.30;;
34035;SDS011;63481;52.588;22.472;2023-02-08T02:40:28;12.20;;;5.00;;
34035;SDS011;63481;52.588;22.472;2023-02-08T02:43:10;11.10;;;5.20;;
34035;SDS011;63481;52.588;22.472;2023-02-08T02:44:34;11.50;;;5.20;;
34035;SDS011;63481;52.588;22.472;2023-02-08T02:45:39;10.70;;;5.10;;
34035;SDS011;63481;52.588;22.472;2023-02-08T02:46:40;11.70;;;5.60;;
34035;SDS011;63481;52.588;22.472;2023-02-08T02:47:48;13.30;;;6.00;;
34035;SDS011;63481;52.588;22.472;2023-02-08T02:49:46;15.70;;;6.60;;
34035;SDS011;63481;52.588;22.472;2023-02-08T02:50:44;13.10;;;5.90;;
34035;SDS011;63481;52.588;22.472;2023-02-08T02:52:40;14.00;;;6.10;;
34035;SDS011;63481;52.588;22.472;2023-02-08T02:53:43;14.00;;;6.10;;
34035;SDS011;63481;52.588;22.472;2023-02-08T02:54:51;15.40;;;5.40;;
34035;SDS011;63481;52.588;22.472;2023-02-08T02:55:49;13.90;;;5.90;;
34035;SDS011;63481;52.588;22.472;2023-02-08T02:56:49;14.10;;;5.90;;
34035;SDS011;63481;52.588;22.472;2023-02-08T02:57:44;11.70;;;5.10;;
34035;SDS011;63481;52.588;22.472;2023-02-08T02:58:41;18.30;;;5.90;;
34035;SDS011;63481;52.588;22.472;2023-02-08T02:59:36;11.00;;;5.80;;
34035;SDS011;63481;52.588;22.472;2023-02-08T03:00:30;12.30;;;5.60;;
34035;SDS011;63481;52.588;22.472;2023-02-08T03:01:25;17.20;;;6.30;;
34035;SDS011;63481;52.588;22.472;2023-02-08T03:02:18;14.80;;;6.00;;
34035;SDS011;63481;52.588;22.472;2023-02-08T03:03:16;12.10;;;5.90;;
34035;SDS011;63481;52.588;22.472;2023-02-08T03:04:17;15.40;;;5.90;;
34035;SDS011;63481;52.588;22.472;2023-02-08T03:05:30;11.30;;;5.40;;
34035;SDS011;63481;52.588;22.472;2023-02-08T03:06:38;12.70;;;5.60;;
34035;SDS011;63481;52.588;22.472;2023-02-08T03:07:49;12.10;;;5.10;;
34035;SDS011;63481;52.588;22.472;2023-02-08T03:09:34;12.30;;;4.70;;
34035;SDS011;63481;52.588;22.472;2023-02-08T03:10:33;13.80;;;5.50;;
34035;SDS011;63481;52.588;22.472;2023-02-08T03:12:34;11.60;;;5.40;;
34035;SDS011;63481;52.588;22.472;2023-02-08T03:13:23;10.60;;;5.10;;
34035;SDS011;63481;52.588;22.472;2023-02-08T03:14:32;14.90;;;5.80;;
34035;SDS011;63481;52.588;22.472;2023-02-08T03:17:09;11.00;;;5.20;;
34035;SDS011;63481;52.588;22.472;2023-02-08T03:19:26;10.50;;;5.00;;
34035;SDS011;63481;52.588;22.472;2023-02-08T03:20:25;15.70;;;6.40;;
34035;SDS011;63481;52.588;22.472;2023-02-08T03:21:36;11.30;;;5.20;;
34035;SDS011;63481;52.588;22.472;2023-02-08T03:30:01;8.20;;;3.30;;
34035;SDS011;63481;52.588;22.472;2023-02-08T03:32:35;4.00;;;2.20;;
34035;SDS011;63481;52.588;22.472;2023-02-08T03:33:57;5.00;;;2.00;;
34035;SDS011;63481;52.588;22.472;2023-02-08T03:37:24;3.20;;;1.70;;
34035;SDS011;63481;52.588;22.472;2023-02-08T03:38:25;3.80;;;1.90;;
34035;SDS011;63481;52.588;22.472;2023-02-08T03:39:22;5.80;;;2.50;;
34035;SDS011;63481;52.588;22.472;2023-02-08T03:40:24;4.20;;;2.20;;
34035;SDS011;63481;52.588;22.472;2023-02-08T03:41:23;5.10;;;2.40;;
34035;SDS011;63481;52.588;22.472;2023-02-08T03:42:22;5.90;;;2.20;;
34035;SDS011;63481;52.588;22.472;2023-02-08T03:43:34;4.70;;;2.40;;
34035;SDS011;63481;52.588;22.472;2023-02-08T03:44:39;5.30;;;2.40;;
34035;SDS011;63481;52.588;22.472;2023-02-08T03:45:41;7.40;;;2.70;;
34035;SDS011;63481;52.588;22.472;2023-02-08T03:46:40;5.30;;;2.80;;
34035;SDS011;63481;52.588;22.472;2023-02-08T03:47:38;5.90;;;2.30;;
34035;SDS011;63481;52.588;22.472;2023-02-08T03:48:35;6.10;;;2.70;;
34035;SDS011;63481;52.588;22.472;2023-02-08T03:49:32;6.10;;;2.50;;
34035;SDS011;63481;52.588;22.472;2023-02-08T03:50:30;5.60;;;2.90;;
34035;SDS011;63481;52.588;22.472;2023-02-08T03:51:27;4.80;;;2.60;;
34035;SDS011;63481;52.588;22.472;2023-02-08T03:52:22;6.90;;;3.10;;
34035;SDS011;63481;52.588;22.472;2023-02-08T03:53:16;6.60;;;2.80;;
34035;SDS011;63481;52.588;22.472;2023-02-08T03:54:16;6.60;;;3.00;;
34035;SDS011;63481;52.588;22.472;2023-02-08T03:55:14;7.30;;;3.20;;
34035;SDS011;63481;52.588;22.472;2023-02-08T03:56:12;7.40;;;2.80;;
34035;SDS011;63481;52.588;22.472;2023-02-08T03:57:18;6.40;;;2.60;;
34035;SDS011;63481;52.588;22.472;2023-02-08T03:58:30;6.30;;;2.90;;
34035;SDS011;63481;52.588;22.472;2023-02-08T03:59:27;6.40;;;2.50;;
34035;SDS011;63481;52.588;22.472;2023-02-08T04:00:24;6.80;;;3.00;;
34035;SDS011;63481;52.588;22.472;2023-02-08T04:01:24;5.90;;;2.90;;
34035;SDS011;63481;52.588;22.472;2023-02-08T04:02:22;6.30;;;2.90;;
34035;SDS011;63481;52.588;22.472;2023-02-08T04:03:20;6.00;;;2.70;;
34035;SDS011;63481;52.588;22.472;2023-02-08T04:04:17;6.60;;;3.00;;
34035;SDS011;63481;52.588;22.472;2023-02-08T04:05:12;5.70;;;2.70;;
34035;SDS011;63481;52.588;22.472;2023-02-08T04:06:06;5.60;;;2.80;;
34035;SDS011;63481;52.588;22.472;2023-02-08T04:06:59;5.30;;;2.60;;
34035;SDS011;63481;52.588;22.472;2023-02-08T04:07:53;6.10;;;3.00;;
34035;SDS011;63481;52.588;22.472;2023-02-08T04:08:47;6.90;;;2.70;;
34035;SDS011;63481;52.588;22.472;2023-02-08T04:09:40;5.10;;;2.40;;
34035;SDS011;63481;52.588;22.472;2023-02-08T04:10:33;6.70;;;2.90;;
34035;SDS011;63481;52.588;22.472;2023-02-08T04:11:26;5.90;;;2.60;;
34035;SDS011;63481;52.588;22.472;2023-02-08T04:12:19;6.00;;;2.80;;
34035;SDS011;63481;52.588;22.472;2023-02-08T04:13:13;4.80;;;2.80;;
34035;SDS011;63481;52.588;22.472;2023-02-08T04:14:06;5.50;;;2.50;;
34035;SDS011;63481;52.588;22.472;2023-02-08T04:14:59;4.60;;;2.40;;
34035;SDS011;63481;52.588;22.472;2023-02-08T04:15:52;6.10;;;2.60;;
34035;SDS011;63481;52.588;22.472;2023-02-08T04:16:44;3.50;;;2.10;;
34035;SDS011;63481;52.588;22.472;2023-02-08T04:17:37;4.90;;;2.30;;
34035;SDS011;63481;52.588;22.472;2023-02-08T04:18:30;6.00;;;2.60;;
34035;SDS011;63481;52.588;22.472;2023-02-08T04:19:24;5.40;;;2.50;;
34035;SDS011;63481;52.588;22.472;2023-02-08T04:20:17;5.50;;;2.50;;
34035;SDS011;63481;52.588;22.472;2023-02-08T04:21:11;5.30;;;2.30;;
34035;SDS011;63481;52.588;22.472;2023-02-08T04:22:05;5.40;;;2.60;;
34035;SDS011;63481;52.588;22.472;2023-02-08T04:22:58;8.20;;;2.50;;
34035;SDS011;63481;52.588;22.472;2023-02-08T04:23:52;5.40;;;2.50;;
34035;SDS011;63481;52.588;22.472;2023-02-08T04:24:45;6.10;;;2.80;;
34035;SDS011;63481;52.588;22.472;2023-02-08T04:25:38;4.80;;;2.50;;
34035;SDS011;63481;52.588;22.472;2023-02-08T04:26:32;3.80;;;2.40;;
34035;SDS011;63481;52.588;22.472;2023-02-08T04:27:25;6.90;;;3.00;;
34035;SDS011;63481;52.588;22.472;2023-02-08T04:28:18;4.10;;;2.40;;
34035;SDS011;63481;52.588;22.472;2023-02-08T04:29:12;5.20;;;2.50;;
34035;SDS011;63481;52.588;22.472;2023-02-08T04:30:05;5.20;;;2.70;;
34035;SDS011;63481;52.588;22.472;2023-02-08T04:30:58;6.10;;;2.50;;
34035;SDS011;63481;52.588;22.472;2023-02-08T04:31:51;7.40;;;3.30;;
34035;SDS011;63481;52.588;22.472;2023-02-08T04:32:43;6.20;;;2.60;;
34035;SDS011;63481;52.588;22.472;2023-02-08T04:33:36;6.00;;;2.60;;
34035;SDS011;63481;52.588;22.472;2023-02-08T04:34:29;5.50;;;2.70;;
34035;SDS011;63481;52.588;22.472;2023-02-08T04:35:22;6.00;;;2.70;;
34035;SDS011;63481;52.588;22.472;2023-02-08T04:36:15;5.70;;;2.50;;
34035;SDS011;63481;52.588;22.472;2023-02-08T04:37:07;6.10;;;2.80;;
34035;SDS011;63481;52.588;22.472;2023-02-08T04:38:00;5.40;;;2.80;;
34035;SDS011;63481;52.588;22.472;2023-02-08T04:38:53;5.30;;;2.70;;
34035;SDS011;63481;52.588;22.472;2023-02-08T04:39:46;7.10;;;2.90;;
34035;SDS011;63481;52.588;22.472;2023-02-08T04:40:38;6.40;;;2.80;;
34035;SDS011;63481;52.588;22.472;2023-02-08T04:41:31;6.90;;;2.80;;
34035;SDS011;63481;52.588;22.472;2023-02-08T04:42:23;7.50;;;2.50;;
34035;SDS011;63481;52.588;22.472;2023-02-08T04:43:16;5.70;;;2.70;;
34035;SDS011;63481;52.588;22.472;2023-02-08T04:44:09;6.00;;;2.80;;
34035;SDS011;63481;52.588;22.472;2023-02-08T04:45:02;7.60;;;3.10;;
34035;SDS011;63481;52.588;22.472;2023-02-08T04:45:55;5.40;;;2.90;;
34035;SDS011;63481;52.588;22.472;2023-02-08T04:46:47;6.30;;;2.90;;
34035;SDS011;63481;52.588;22.472;2023-02-08T04:47:40;7.80;;;3.20;;
34035;SDS011;63481;52.588;22.472;2023-02-08T04:48:33;4.80;;;2.70;;
34035;SDS011;63481;52.588;22.472;2023-02-08T04:49:25;5.70;;;2.80;;
34035;SDS011;63481;52.588;22.472;2023-02-08T04:50:18;6.80;;;3.20;;
34035;SDS011;63481;52.588;22.472;2023-02-08T04:51:11;8.10;;;3.10;;
34035;SDS011;63481;52.588;22.472;2023-02-08T04:52:04;6.30;;;3.20;;
34035;SDS011;63481;52.588;22.472;2023-02-08T04:52:57;11.50;;;2.90;;
34035;SDS011;63481;52.588;22.472;2023-02-08T04:53:49;6.90;;;3.00;;
34035;SDS011;63481;52.588;22.472;2023-02-08T04:54:42;6.30;;;2.70;;
34035;SDS011;63481;52.588;22.472;2023-02-08T04:55:35;8.30;;;3.20;;
34035;SDS011;63481;52.588;22.472;2023-02-08T04:56:27;5.70;;;2.80;;
34035;SDS011;63481;52.588;22.472;2023-02-08T04:57:20;6.20;;;3.30;;
34035;SDS011;63481;52.588;22.472;2023-02-08T04:58:13;6.80;;;3.30;;
34035;SDS011;63481;52.588;22.472;2023-02-08T04:59:05;7.30;;;3.20;;
34035;SDS011;63481;52.588;22.472;2023-02-08T04:59:58;7.70;;;3.40;;
34035;SDS011;63481;52.588;22.472;2023-02-08T05:00:51;7.30;;;3.30;;
34035;SDS011;63481;52.588;22.472;2023-02-08T05:01:44;7.20;;;3.20;;
34035;SDS011;63481;52.588;22.472;2023-02-08T05:02:36;6.80;;;3.10;;
34035;SDS011;63481;52.588;22.472;2023-02-08T05:03:29;5.40;;;2.60;;
34035;SDS011;63481;52.588;22.472;2023-02-08T05:04:22;2.90;;;1.90;;
34035;SDS011;63481;52.588;22.472;2023-02-08T05:05:15;4.20;;;2.30;;
34035;SDS011;63481;52.588;22.472;2023-02-08T05:06:07;4.00;;;2.20;;
34035;SDS011;63481;52.588;22.472;2023-02-08T05:07:00;3.90;;;2.20;;
34035;SDS011;63481;52.588;22.472;2023-02-08T05:07:53;4.80;;;2.40;;
34035;SDS011;63481;52.588;22.472;2023-02-08T05:08:46;4.20;;;2.20;;
34035;SDS011;63481;52.588;22.472;2023-02-08T05:09:38;4.50;;;2.40;;
34035;SDS011;63481;52.588;22.472;2023-02-08T05:10:31;3.70;;;2.30;;
34035;SDS011;63481;52.588;22.472;2023-02-08T05:11:24;4.30;;;2.20;;
34035;SDS011;63481;52.588;22.472;2023-02-08T05:12:17;6.70;;;2.30;;
34035;SDS011;63481;52.588;22.472;2023-02-08T05:13:09;6.10;;;2.50;;
34035;SDS011;63481;52.588;22.472;2023-02-08T05:14:02;2.70;;;1.90;;
34035;SDS011;63481;52.588;22.472;2023-02-08T05:14:55;3.50;;;2.00;;
34035;SDS011;63481;52.588;22.472;2023-02-08T05:15:48;4.70;;;2.30;;
34035;SDS011;63481;52.588;22.472;2023-02-08T05:16:41;4.30;;;2.10;;
34035;SDS011;63481;52.588;22.472;2023-02-08T05:17:33;3.90;;;2.10;;
34035;SDS011;63481;52.588;22.472;2023-02-08T05:18:26;7.30;;;2.40;;
34035;SDS011;63481;52.588;22.472;2023-02-08T05:19:19;4.20;;;2.40;;
34035;SDS011;63481;52.588;22.472;2023-02-08T05:20:12;4.00;;;2.50;;
34035;SDS011;63481;52.588;22.472;2023-02-08T05:21:05;5.50;;;2.40;;
34035;SDS011;63481;52.588;22.472;2023-02-08T05:21:58;5.60;;;2.60;;
34035;SDS011;63481;52.588;22.472;2023-02-08T05:22:50;3.50;;;1.90;;
34035;SDS011;63481;52.588;22.472;2023-02-08T05:23:43;3.60;;;2.10;;
34035;SDS011;63481;52.588;22.472;2023-02-08T05:24:36;4.30;;;2.20;;
34035;SDS011;63481;52.588;22.472;2023-02-08T05:25:28;4.40;;;2.40;;
34035;SDS011;63481;52.588;22.472;2023-02-08T05:26:21;5.00;;;2.40;;
34035;SDS011;63481;52.588;22.472;2023-02-08T05:27:14;4.40;;;2.10;;
34035;SDS011;63481;52.588;22.472;2023-02-08T05:28:06;4.40;;;2.20;;
34035;SDS011;63481;52.588;22.472;2023-02-08T05:28:59;4.50;;;2.20;;
34035;SDS011;63481;52.588;22.472;2023-02-08T05:29:52;3.90;;;2.30;;
34035;SDS011;63481;52.588;22.472;2023-02-08T05:30:45;4.20;;;2.30;;
34035;SDS011;63481;52.588;22.472;2023-02-08T05:31:38;3.80;;;2.10;;
34035;SDS011;63481;52.588;22.472;2023-02-08T05:32:31;5.40;;;2.00;;
34035;SDS011;63481;52.588;22.472;2023-02-08T05:33:24;5.10;;;2.30;;
34035;SDS011;63481;52.588;22.472;2023-02-08T05:34:17;4.90;;;2.50;;
34035;SDS011;63481;52.588;22.472;2023-02-08T05:35:09;3.80;;;2.30;;
34035;SDS011;63481;52.588;22.472;2023-02-08T05:36:02;7.00;;;2.70;;
34035;SDS011;63481;52.588;22.472;2023-02-08T05:36:55;4.30;;;2.50;;
34035;SDS011;63481;52.588;22.472;2023-02-08T05:37:47;5.00;;;2.40;;
34035;SDS011;63481;52.588;22.472;2023-02-08T05:38:40;3.30;;;2.20;;
34035;SDS011;63481;52.588;22.472;2023-02-08T05:39:33;3.80;;;2.00;;
34035;SDS011;63481;52.588;22.472;2023-02-08T05:40:25;5.20;;;2.40;;
34035;SDS011;63481;52.588;22.472;2023-02-08T05:41:18;4.80;;;2.40;;
34035;SDS011;63481;52.588;22.472;2023-02-08T05:42:11;5.80;;;2.50;;
34035;SDS011;63481;52.588;22.472;2023-02-08T05:43:04;3.40;;;2.20;;
34035;SDS011;63481;52.588;22.472;2023-02-08T05:43:56;5.00;;;2.00;;
34035;SDS011;63481;52.588;22.472;2023-02-08T05:44:49;4.90;;;2.40;;
34035;SDS011;63481;52.588;22.472;2023-02-08T05:45:42;6.50;;;2.70;;
34035;SDS011;63481;52.588;22.472;2023-02-08T05:46:34;4.60;;;2.30;;
34035;SDS011;63481;52.588;22.472;2023-02-08T05:47:27;4.30;;;2.10;;
34035;SDS011;63481;52.588;22.472;2023-02-08T05:48:20;4.90;;;2.40;;
34035;SDS011;63481;52.588;22.472;2023-02-08T05:49:12;5.00;;;2.70;;
34035;SDS011;63481;52.588;22.472;2023-02-08T05:50:05;3.50;;;2.20;;
34035;SDS011;63481;52.588;22.472;2023-02-08T05:50:58;3.70;;;2.10;;
34035;SDS011;63481;52.588;22.472;2023-02-08T05:51:51;4.70;;;2.40;;
34035;SDS011;63481;52.588;22.472;2023-02-08T05:52:44;6.10;;;2.50;;
34035;SDS011;63481;52.588;22.472;2023-02-08T05:53:37;4.90;;;2.50;;
34035;SDS011;63481;52.588;22.472;2023-02-08T05:54:30;5.90;;;2.60;;
34035;SDS011;63481;52.588;22.472;2023-02-08T05:55:23;5.00;;;2.50;;
34035;SDS011;63481;52.588;22.472;2023-02-08T05:56:17;4.80;;;2.60;;
34035;SDS011;63481;52.588;22.472;2023-02-08T05:57:10;5.20;;;2.80;;
34035;SDS011;63481;52.588;22.472;2023-02-08T05:58:02;5.90;;;2.90;;
34035;SDS011;63481;52.588;22.472;2023-02-08T05:58:55;6.10;;;3.00;;
34035;SDS011;63481;52.588;22.472;2023-02-08T05:59:48;6.60;;;3.30;;
34035;SDS011;63481;52.588;22.472;2023-02-08T06:00:41;6.30;;;3.20;;
34035;SDS011;63481;52.588;22.472;2023-02-08T06:01:34;6.20;;;2.80;;
34035;SDS011;63481;52.588;22.472;2023-02-08T06:02:27;6.80;;;2.90;;
34035;SDS011;63481;52.588;22.472;2023-02-08T06:03:20;7.70;;;3.00;;
34035;SDS011;63481;52.588;22.472;2023-02-08T06:04:13;7.40;;;3.50;;